ENEV/EVE METAR and TAF weather

Enter ICAO airport designator
Station Type Date Time Source
ENEV METAR 2019/06/18 13:50 UTC NOAA

ENEV 181350Z 24008KT 200V280 9999 -RA BKN043 13/07 Q1008 RMK WIND 1400FT 23013KT


Station Type Date Time Source
ENEV Decoded METAR 2019/06/18 13:50 UTC NOAA

Evenes, Norway (ENEV) 68-31N 016-41E 26M
Jun 18, 2019 - 09:50 AM EDT / 2019.06.18 1350 UTC
Wind: from the WSW (240 degrees) at 9 MPH (8 KT) (direction variable):0
Visibility: greater than 7 mile(s):0
Sky conditions: mostly cloudy
Weather: light rain
Temperature: 55 F (13 C)
Dew Point: 44 F (7 C)
Relative Humidity: 66%
Pressure (altimeter): 29.77 in. Hg (1008 hPa)
ob: ENEV 181350Z 24008KT 200V280 9999 -RA BKN043 13/07 Q1008 RMK WIND 1400FT 23013KT
cycle: 14

Station Type Date Time Source
ENEV TAF 2010/02/05 07:50 UTC NOAA

METAR ENEV 050750Z 14007KT 9999 FEW040 SCT055 M04/M09 Q1019

Example: see airport list